Time;durP1;ratioP1;P1;durP2;ratioP2;P2;SDS_P1;SDS_P2;PMS_P1;PMS_P2;Temp;Humidity;BMP_temperature;BMP_pressure;BME280_temperature;BME280_humidity;BME280_pressure;Samples;Min_cycle;Max_cycle;Signal;HPM_P1;HPM_P2
2022/03/07 00:00:43;;;;;;;26.55;15.18;;;;;;;;;;5019841;28;20326;-64
2022/03/07 00:03:08;;;;;;;26.00;14.27;;;;;;;;;;5021147;28;20030;-66
2022/03/07 00:05:34;;;;;;;26.58;14.68;;;;;;;;;;5021211;28;20261;-66
2022/03/07 00:07:59;;;;;;;26.25;15.02;;;;;;;;;;5020297;28;20040;-65
2022/03/07 00:10:25;;;;;;;25.75;14.90;;;;;;;;;;5021241;28;20025;-65
2022/03/07 00:12:50;;;;;;;26.48;14.63;;;;;;;;;;5021086;28;20034;-65
2022/03/07 00:15:17;;;;;;;28.20;15.07;;;;;;;;;;5021066;28;20026;-65
2022/03/07 00:17:42;;;;;;;25.20;14.32;;;;;;;;;;5018947;28;20360;-65
2022/03/07 00:20:09;;;;;;;30.95;14.90;;;;;;;;;;5020468;28;20092;-65
2022/03/07 00:22:34;;;;;;;26.85;14.77;;;;;;;;;;5020868;28;20045;-65
2022/03/07 00:25:00;;;;;;;30.92;16.00;;;;;;;;;;5020677;28;20032;-65
2022/03/07 00:27:25;;;;;;;33.22;14.98;;;;;;;;;;5020818;28;20037;-65
2022/03/07 00:29:50;;;;;;;33.67;16.20;;;;;;;;;;5020246;28;20269;-65
2022/03/07 00:32:16;;;;;;;30.58;15.45;;;;;;;;;;5020610;28;20046;-65
2022/03/07 00:34:41;;;;;;;30.95;15.95;;;;;;;;;;5020310;28;20041;-64
2022/03/07 00:37:07;;;;;;;35.25;16.73;;;;;;;;;;5020190;28;20025;-65
2022/03/07 00:39:32;;;;;;;33.22;15.93;;;;;;;;;;5021453;28;20040;-65
2022/03/07 00:41:58;;;;;;;29.40;15.15;;;;;;;;;;5020954;28;20029;-65
2022/03/07 00:44:23;;;;;;;30.08;15.38;;;;;;;;;;5020712;28;20025;-65
2022/03/07 00:46:48;;;;;;;28.92;14.80;;;;;;;;;;5020115;28;20076;-64
2022/03/07 00:49:14;;;;;;;24.75;14.45;;;;;;;;;;5020422;28;20384;-65
2022/03/07 00:51:39;;;;;;;27.65;14.80;;;;;;;;;;5020467;28;20089;-64
2022/03/07 00:54:05;;;;;;;25.30;14.73;;;;;;;;;;5019994;28;20034;-65
2022/03/07 00:56:30;;;;;;;28.48;14.15;;;;;;;;;;5020099;28;20033;-64
2022/03/07 00:58:56;;;;;;;28.35;14.80;;;;;;;;;;5020394;28;20041;-65
2022/03/07 01:01:21;;;;;;;25.05;14.30;;;;;;;;;;5020593;28;20060;-64
2022/03/07 01:03:46;;;;;;;26.95;14.63;;;;;;;;;;5020499;28;20030;-64
2022/03/07 01:06:13;;;;;;;26.48;14.10;;;;;;;;;;5019882;28;20033;-65
2022/03/07 01:08:39;;;;;;;24.55;12.88;;;;;;;;;;5020100;28;20056;-65
2022/03/07 01:11:05;;;;;;;23.92;13.27;;;;;;;;;;5020500;28;20145;-64
2022/03/07 01:13:30;;;;;;;25.63;13.82;;;;;;;;;;5024012;28;20045;-64
2022/03/07 01:15:56;;;;;;;26.40;13.73;;;;;;;;;;5024751;28;20268;-64
2022/03/07 01:18:21;;;;;;;23.70;13.32;;;;;;;;;;5024249;28;20521;-64
2022/03/07 01:20:47;;;;;;;26.00;14.73;;;;;;;;;;5024207;28;20157;-64
2022/03/07 01:23:12;;;;;;;24.92;12.88;;;;;;;;;;5024307;28;20026;-64
2022/03/07 01:25:38;;;;;;;26.75;13.80;;;;;;;;;;5023738;28;20021;-64
2022/03/07 01:28:03;;;;;;;23.63;13.02;;;;;;;;;;5023869;28;20018;-65
2022/03/07 01:30:29;;;;;;;25.15;13.25;;;;;;;;;;5023423;28;20060;-65
2022/03/07 01:32:54;;;;;;;24.67;13.52;;;;;;;;;;5024214;28;20254;-65
2022/03/07 01:35:20;;;;;;;22.00;13.20;;;;;;;;;;5023237;28;20042;-65
2022/03/07 01:37:46;;;;;;;21.65;12.70;;;;;;;;;;5023585;28;20032;-65
2022/03/07 01:40:12;;;;;;;24.42;13.40;;;;;;;;;;5023740;28;20375;-65
2022/03/07 01:42:38;;;;;;;23.65;13.50;;;;;;;;;;5023934;28;20052;-64
2022/03/07 01:45:10;;;;;;;24.73;13.05;;;;;;;;;;5023340;28;20329;-65
2022/03/07 01:47:36;;;;;;;22.85;13.02;;;;;;;;;;5023666;28;20053;-65
2022/03/07 01:50:03;;;;;;;23.38;13.10;;;;;;;;;;5023511;28;20049;-65
2022/03/07 01:52:28;;;;;;;23.60;13.35;;;;;;;;;;5023198;28;20033;-65
2022/03/07 01:54:54;;;;;;;26.27;13.65;;;;;;;;;;5023257;28;20105;-65
2022/03/07 01:57:20;;;;;;;25.80;13.77;;;;;;;;;;5023281;28;20034;-64
2022/03/07 01:59:45;;;;;;;24.67;13.82;;;;;;;;;;5023161;28;20214;-65
2022/03/07 02:02:11;;;;;;;25.52;13.93;;;;;;;;;;5022937;28;20380;-65
2022/03/07 02:04:40;;;;;;;27.52;14.18;;;;;;;;;;5023212;28;20314;-65
2022/03/07 02:07:06;;;;;;;25.98;14.13;;;;;;;;;;5022727;28;20030;-65
2022/03/07 02:09:31;;;;;;;21.95;13.45;;;;;;;;;;5023029;28;20052;-65
2022/03/07 02:11:57;;;;;;;25.67;14.50;;;;;;;;;;5023589;28;20037;-64
2022/03/07 02:14:22;;;;;;;26.55;14.18;;;;;;;;;;5023234;28;20034;-64
2022/03/07 02:16:49;;;;;;;29.63;14.98;;;;;;;;;;5022694;28;20038;-64
2022/03/07 02:19:15;;;;;;;30.52;15.93;;;;;;;;;;5022841;28;20029;-65
2022/03/07 02:21:49;;;;;;;27.27;15.23;;;;;;;;;;5022713;28;20034;-65
2022/03/07 02:24:18;;;;;;;30.92;15.15;;;;;;;;;;5022175;28;20029;-65
2022/03/07 02:27:04;;;;;;;29.02;14.88;;;;;;;;;;5023229;28;20025;-65
2022/03/07 02:29:31;;;;;;;32.47;15.32;;;;;;;;;;5022829;28;20033;-64
2022/03/07 02:31:57;;;;;;;29.25;15.00;;;;;;;;;;5022369;28;20036;-65
2022/03/07 02:34:23;;;;;;;25.42;14.00;;;;;;;;;;5022219;28;20234;-65
2022/03/07 02:36:48;;;;;;;26.02;15.25;;;;;;;;;;5022335;28;20306;-64
2022/03/07 02:39:14;;;;;;;29.13;15.73;;;;;;;;;;5022483;28;20026;-65
2022/03/07 02:41:40;;;;;;;26.25;14.85;;;;;;;;;;5022757;28;20399;-65
2022/03/07 02:44:07;;;;;;;30.92;15.98;;;;;;;;;;5022318;28;20190;-65
2022/03/07 02:46:32;;;;;;;26.58;14.93;;;;;;;;;;5022535;28;20029;-65
2022/03/07 02:48:58;;;;;;;28.13;14.73;;;;;;;;;;5022577;28;20041;-65
2022/03/07 02:51:23;;;;;;;31.67;15.02;;;;;;;;;;5021958;28;20060;-65
2022/03/07 02:53:49;;;;;;;24.77;14.20;;;;;;;;;;5022298;28;20314;-65
2022/03/07 02:56:15;;;;;;;26.75;14.75;;;;;;;;;;5022622;28;20080;-65
2022/03/07 02:58:41;;;;;;;28.17;14.30;;;;;;;;;;5022286;28;20071;-64
2022/03/07 03:01:07;;;;;;;25.30;13.75;;;;;;;;;;5021609;28;20057;-64
2022/03/07 03:03:32;;;;;;;24.92;14.25;;;;;;;;;;5022393;28;20030;-64
2022/03/07 03:05:58;;;;;;;26.58;14.48;;;;;;;;;;5021843;28;20036;-64
2022/03/07 03:08:24;;;;;;;25.27;12.85;;;;;;;;;;5021790;28;20053;-65
2022/03/07 03:10:50;;;;;;;26.30;13.60;;;;;;;;;;5020645;28;20474;-65
2022/03/07 03:13:20;;;;;;;23.92;12.57;;;;;;;;;;5014210;28;20026;-65
2022/03/07 03:15:46;;;;;;;26.23;14.45;;;;;;;;;;5020440;28;20382;-64
2022/03/07 03:18:16;;;;;;;26.75;14.10;;;;;;;;;;5020959;28;20069;-64
2022/03/07 03:20:43;;;;;;;26.00;13.97;;;;;;;;;;5021913;28;20033;-64
2022/03/07 03:23:09;;;;;;;26.63;14.30;;;;;;;;;;5021440;28;20044;-64
2022/03/07 03:25:35;;;;;;;23.45;13.23;;;;;;;;;;5021965;28;20364;-65
2022/03/07 03:28:01;;;;;;;27.15;13.32;;;;;;;;;;5021623;28;20030;-65
2022/03/07 03:30:26;;;;;;;25.77;13.13;;;;;;;;;;5021313;28;20088;-65
2022/03/07 03:32:52;;;;;;;25.35;13.85;;;;;;;;;;5021661;28;20093;-64
2022/03/07 03:35:17;;;;;;;25.10;12.93;;;;;;;;;;5021558;28;20049;-65
2022/03/07 03:37:43;;;;;;;26.45;14.20;;;;;;;;;;5021053;28;20030;-64
2022/03/07 03:40:11;;;;;;;27.90;13.80;;;;;;;;;;5020982;28;20229;-64
2022/03/07 03:42:36;;;;;;;24.83;13.07;;;;;;;;;;5021321;28;20033;-64
2022/03/07 03:45:05;;;;;;;26.60;13.40;;;;;;;;;;5021172;28;20030;-64
2022/03/07 03:47:32;;;;;;;29.27;14.40;;;;;;;;;;5021707;28;20040;-64
2022/03/07 03:49:57;;;;;;;26.38;14.10;;;;;;;;;;5021995;28;20075;-64
2022/03/07 03:52:23;;;;;;;29.05;13.57;;;;;;;;;;5021107;28;20053;-65
2022/03/07 03:54:48;;;;;;;27.73;13.88;;;;;;;;;;5021590;28;20019;-64
2022/03/07 03:57:14;;;;;;;23.25;13.32;;;;;;;;;;5021315;28;20029;-64
2022/03/07 03:59:39;;;;;;;26.63;13.88;;;;;;;;;;5021657;28;20029;-65
2022/03/07 04:02:05;;;;;;;27.38;13.23;;;;;;;;;;5021189;28;20026;-64
2022/03/07 04:04:31;;;;;;;25.25;13.70;;;;;;;;;;5020083;28;20033;-64
2022/03/07 04:06:56;;;;;;;27.48;13.93;;;;;;;;;;5021322;28;20037;-64
2022/03/07 04:09:22;;;;;;;26.70;13.45;;;;;;;;;;5020499;28;20098;-65
2022/03/07 04:11:49;;;;;;;26.85;13.70;;;;;;;;;;5021579;28;20026;-65
2022/03/07 04:14:15;;;;;;;25.73;13.32;;;;;;;;;;5020958;28;20378;-64
2022/03/07 04:16:41;;;;;;;21.23;12.25;;;;;;;;;;5021281;28;20079;-64
2022/03/07 04:19:08;;;;;;;24.58;12.95;;;;;;;;;;5020865;28;20044;-64
2022/03/07 04:21:35;;;;;;;23.83;13.63;;;;;;;;;;5020639;28;20169;-64
2022/03/07 04:24:01;;;;;;;25.55;13.68;;;;;;;;;;5020620;28;20318;-65
2022/03/07 04:26:27;;;;;;;24.75;12.98;;;;;;;;;;5020667;28;20097;-64
2022/03/07 04:28:53;;;;;;;25.92;13.07;;;;;;;;;;5020192;28;20033;-64
2022/03/07 04:31:18;;;;;;;24.05;13.25;;;;;;;;;;5019995;28;20026;-65
2022/03/07 04:33:44;;;;;;;25.42;12.70;;;;;;;;;;5020398;28;20046;-64
2022/03/07 04:36:10;;;;;;;23.35;12.93;;;;;;;;;;5020473;28;20021;-65
2022/03/07 04:38:35;;;;;;;27.70;13.18;;;;;;;;;;5020296;28;20085;-65
2022/03/07 04:41:02;;;;;;;25.52;13.25;;;;;;;;;;5020492;28;20117;-64
2022/03/07 04:43:28;;;;;;;22.67;12.60;;;;;;;;;;5020584;28;20030;-65
2022/03/07 04:45:53;;;;;;;22.80;12.45;;;;;;;;;;5021544;28;20056;-64
2022/03/07 04:48:22;;;;;;;25.77;12.75;;;;;;;;;;5027245;28;20030;-64
2022/03/07 04:50:48;;;;;;;27.35;13.52;;;;;;;;;;5026677;28;20049;-64
2022/03/07 04:53:14;;;;;;;23.95;12.20;;;;;;;;;;5026955;28;20040;-64
2022/03/07 04:55:40;;;;;;;27.85;13.68;;;;;;;;;;5027034;28;20036;-64
2022/03/07 04:58:05;;;;;;;27.65;12.55;;;;;;;;;;5026767;28;20040;-65
2022/03/07 05:00:31;;;;;;;25.88;13.25;;;;;;;;;;5027227;28;20038;-64
2022/03/07 05:02:57;;;;;;;25.55;13.48;;;;;;;;;;5027298;28;20101;-65
2022/03/07 05:05:22;;;;;;;22.83;12.60;;;;;;;;;;5027361;28;20034;-64
2022/03/07 05:07:51;;;;;;;30.45;13.00;;;;;;;;;;5026689;28;20315;-65
2022/03/07 05:10:18;;;;;;;24.67;12.90;;;;;;;;;;5027043;28;20079;-64
2022/03/07 05:12:44;;;;;;;23.08;12.48;;;;;;;;;;5026657;28;20251;-65
2022/03/07 05:15:10;;;;;;;24.13;12.52;;;;;;;;;;5026760;28;20318;-64
2022/03/07 05:17:54;;;;;;;24.58;13.13;;;;;;;;;;5027061;28;20026;-65
2022/03/07 05:20:21;;;;;;;25.90;12.68;;;;;;;;;;5026897;28;20036;-64
2022/03/07 05:22:46;;;;;;;26.63;12.82;;;;;;;;;;5026980;28;20056;-64
2022/03/07 05:25:13;;;;;;;24.40;12.13;;;;;;;;;;5026579;28;20025;-65
2022/03/07 05:27:39;;;;;;;24.30;12.60;;;;;;;;;;5026297;28;20233;-65
2022/03/07 05:30:07;;;;;;;25.67;12.43;;;;;;;;;;5026692;28;20037;-65
2022/03/07 05:32:33;;;;;;;20.58;11.20;;;;;;;;;;5026619;28;20040;-64
2022/03/07 05:34:59;;;;;;;25.20;12.70;;;;;;;;;;5026015;28;20061;-65
2022/03/07 05:37:24;;;;;;;25.27;12.98;;;;;;;;;;5026293;28;20080;-65
2022/03/07 05:39:50;;;;;;;25.73;12.90;;;;;;;;;;5026500;28;20030;-65
2022/03/07 05:42:15;;;;;;;23.80;12.55;;;;;;;;;;5026451;28;20038;-65
2022/03/07 05:44:41;;;;;;;26.63;13.32;;;;;;;;;;5026552;28;20045;-64
2022/03/07 05:47:06;;;;;;;24.05;12.63;;;;;;;;;;5026141;28;20093;-64
2022/03/07 05:49:32;;;;;;;25.60;12.70;;;;;;;;;;5027031;28;20025;-65
2022/03/07 05:51:57;;;;;;;27.20;13.52;;;;;;;;;;5026278;28;20034;-64
2022/03/07 05:54:23;;;;;;;26.67;12.90;;;;;;;;;;5026438;28;20105;-65
2022/03/07 05:56:48;;;;;;;26.52;13.13;;;;;;;;;;5026262;28;20048;-65
2022/03/07 05:59:14;;;;;;;29.05;13.32;;;;;;;;;;5022188;28;20053;-65
2022/03/07 06:01:39;;;;;;;22.42;13.23;;;;;;;;;;5022549;28;20022;-65
2022/03/07 06:04:05;;;;;;;28.90;12.77;;;;;;;;;;5023346;28;20318;-65
2022/03/07 06:06:30;;;;;;;24.67;11.85;;;;;;;;;;5022967;28;20030;-65
2022/03/07 06:08:56;;;;;;;22.70;12.57;;;;;;;;;;5023306;28;20041;-64
2022/03/07 06:11:21;;;;;;;22.02;11.95;;;;;;;;;;5022814;28;20033;-64
2022/03/07 06:13:46;;;;;;;24.63;12.15;;;;;;;;;;5023745;28;20174;-65
2022/03/07 06:16:13;;;;;;;23.50;12.32;;;;;;;;;;5022302;28;20310;-64
2022/03/07 06:18:38;;;;;;;23.30;11.88;;;;;;;;;;5021654;28;20210;-65
2022/03/07 06:21:05;;;;;;;23.17;12.88;;;;;;;;;;5023206;28;20325;-64
2022/03/07 06:23:30;;;;;;;25.38;13.05;;;;;;;;;;5022376;28;20089;-64
2022/03/07 06:25:56;;;;;;;28.25;13.13;;;;;;;;;;5022704;28;20045;-65
2022/03/07 06:28:21;;;;;;;25.35;12.43;;;;;;;;;;5022478;28;20330;-64
2022/03/07 06:30:47;;;;;;;25.77;13.10;;;;;;;;;;5023018;28;20038;-65
2022/03/07 06:33:13;;;;;;;24.30;12.57;;;;;;;;;;5022694;28;20037;-66
2022/03/07 06:35:39;;;;;;;24.58;12.60;;;;;;;;;;5021864;28;20037;-65
2022/03/07 06:38:05;;;;;;;25.63;12.70;;;;;;;;;;5022397;28;20029;-65
2022/03/07 06:40:31;;;;;;;23.48;12.60;;;;;;;;;;5022773;28;20029;-65
2022/03/07 06:42:57;;;;;;;25.45;13.57;;;;;;;;;;5022498;28;20092;-65
2022/03/07 06:45:22;;;;;;;28.02;12.68;;;;;;;;;;5022632;28;20057;-66
2022/03/07 06:47:48;;;;;;;26.05;13.27;;;;;;;;;;5021983;28;20033;-65
2022/03/07 06:50:14;;;;;;;26.88;13.02;;;;;;;;;;5022264;28;20025;-66
2022/03/07 06:52:40;;;;;;;25.40;12.60;;;;;;;;;;5022209;28;20049;-65
2022/03/07 06:55:06;;;;;;;23.85;12.32;;;;;;;;;;5022254;28;20045;-65
2022/03/07 06:57:31;;;;;;;24.40;12.43;;;;;;;;;;5021999;28;20057;-65
2022/03/07 06:59:57;;;;;;;21.92;12.07;;;;;;;;;;5022366;28;20030;-65
2022/03/07 07:02:22;;;;;;;22.90;12.70;;;;;;;;;;5021816;28;20030;-68
2022/03/07 07:04:48;;;;;;;23.90;12.85;;;;;;;;;;5022247;28;20034;-69
2022/03/07 07:07:14;;;;;;;23.02;12.57;;;;;;;;;;5021593;28;20324;-64
2022/03/07 07:09:41;;;;;;;23.17;11.95;;;;;;;;;;5021750;28;20213;-64
2022/03/07 07:12:07;;;;;;;21.40;11.68;;;;;;;;;;5021973;28;20121;-65
2022/03/07 07:14:33;;;;;;;22.13;11.80;;;;;;;;;;5021987;28;20048;-65
2022/03/07 07:16:58;;;;;;;26.60;12.52;;;;;;;;;;5020773;28;20030;-64
2022/03/07 07:19:24;;;;;;;22.55;12.10;;;;;;;;;;5021723;28;20028;-63
2022/03/07 07:21:49;;;;;;;24.25;13.35;;;;;;;;;;5021548;28;20044;-64
2022/03/07 07:24:15;;;;;;;26.55;12.10;;;;;;;;;;5021514;28;20059;-70
2022/03/07 07:26:41;;;;;;;27.85;12.52;;;;;;;;;;5022210;28;20255;-65
2022/03/07 07:29:06;;;;;;;23.70;12.48;;;;;;;;;;5022118;28;20317;-63
2022/03/07 07:31:32;;;;;;;23.40;11.23;;;;;;;;;;5021395;28;20091;-64
2022/03/07 07:33:57;;;;;;;21.48;11.70;;;;;;;;;;5021169;28;20057;-67
2022/03/07 07:36:23;;;;;;;24.30;12.13;;;;;;;;;;5021296;28;20100;-65
2022/03/07 07:38:49;;;;;;;24.52;12.02;;;;;;;;;;5021487;28;20025;-64
2022/03/07 07:41:14;;;;;;;25.75;12.35;;;;;;;;;;5021637;28;20395;-64
2022/03/07 07:43:40;;;;;;;26.30;12.48;;;;;;;;;;5021000;28;20060;-65
2022/03/07 07:46:05;;;;;;;26.73;13.93;;;;;;;;;;5021137;28;20055;-64
2022/03/07 07:48:31;;;;;;;31.80;14.10;;;;;;;;;;5021499;28;20030;-69
2022/03/07 07:50:56;;;;;;;28.02;14.70;;;;;;;;;;5020820;28;20061;-63
2022/03/07 07:53:22;;;;;;;28.75;14.35;;;;;;;;;;5021532;28;20037;-66
2022/03/07 07:55:47;;;;;;;31.30;15.02;;;;;;;;;;5021058;28;20075;-68
2022/03/07 07:58:13;;;;;;;29.80;14.35;;;;;;;;;;5020865;28;20025;-64
2022/03/07 08:00:38;;;;;;;26.30;13.73;;;;;;;;;;5019409;28;20314;-63
2022/03/07 08:03:04;;;;;;;27.83;13.20;;;;;;;;;;5020264;28;20077;-64
2022/03/07 08:05:29;;;;;;;25.92;13.27;;;;;;;;;;5020077;28;20025;-65
2022/03/07 08:07:55;;;;;;;24.90;12.32;;;;;;;;;;5021162;28;20028;-63
2022/03/07 08:10:20;;;;;;;28.42;15.18;;;;;;;;;;5020873;28;20034;-63
2022/03/07 08:12:46;;;;;;;25.48;13.32;;;;;;;;;;5020951;28;20261;-63
2022/03/07 08:15:12;;;;;;;26.42;13.80;;;;;;;;;;5020295;28;20095;-68
2022/03/07 08:17:41;;;;;;;24.77;12.55;;;;;;;;;;5012815;28;20393;-62
2022/03/07 08:20:07;;;;;;;21.77;11.23;;;;;;;;;;5011491;28;20544;-63
2022/03/07 08:22:32;;;;;;;22.10;10.52;;;;;;;;;;5020517;28;20022;-64
2022/03/07 08:24:58;;;;;;;20.50;10.95;;;;;;;;;;5021064;28;20026;-66
2022/03/07 08:27:23;;;;;;;19.20;10.85;;;;;;;;;;5021248;28;20029;-64
2022/03/07 08:29:48;;;;;;;18.95;10.60;;;;;;;;;;5020859;28;20146;-71
2022/03/07 08:32:14;;;;;;;19.98;11.13;;;;;;;;;;5020977;28;20033;-64
2022/03/07 08:34:39;;;;;;;23.27;10.75;;;;;;;;;;5020431;28;20300;-65
2022/03/07 08:37:05;;;;;;;17.88;10.13;;;;;;;;;;5019468;28;20026;-65
2022/03/07 08:39:30;;;;;;;23.17;11.05;;;;;;;;;;5020726;28;20022;-64
2022/03/07 08:41:56;;;;;;;24.20;11.50;;;;;;;;;;5020843;28;20302;-63
2022/03/07 08:44:21;;;;;;;19.80;10.35;;;;;;;;;;5021073;28;20021;-64
2022/03/07 08:46:47;;;;;;;20.35;11.02;;;;;;;;;;5020392;28;20029;-65
2022/03/07 08:49:12;;;;;;;20.42;10.25;;;;;;;;;;5020455;28;20061;-66
2022/03/07 08:51:39;;;;;;;19.58;10.88;;;;;;;;;;5020841;28;20033;-66
2022/03/07 08:54:04;;;;;;;23.92;11.55;;;;;;;;;;5020244;28;20041;-63
2022/03/07 08:56:29;;;;;;;19.20;10.70;;;;;;;;;;5025960;28;20032;-65
2022/03/07 08:58:55;;;;;;;19.15;11.07;;;;;;;;;;5024953;28;20033;-70
2022/03/07 09:01:21;;;;;;;20.30;11.02;;;;;;;;;;5019171;28;20076;-72
2022/03/07 09:03:46;;;;;;;18.42;10.93;;;;;;;;;;5020851;28;20100;-64
2022/03/07 09:06:12;;;;;;;20.92;11.07;;;;;;;;;;5020590;28;20040;-63
2022/03/07 09:08:38;;;;;;;22.52;11.38;;;;;;;;;;5020186;28;20054;-69
2022/03/07 09:11:03;;;;;;;19.48;10.93;;;;;;;;;;5020140;28;20026;-63
2022/03/07 09:13:29;;;;;;;18.08;10.38;;;;;;;;;;5019544;28;20026;-62
2022/03/07 09:15:55;;;;;;;20.08;10.75;;;;;;;;;;5020104;28;20152;-63
2022/03/07 09:18:22;;;;;;;19.30;10.50;;;;;;;;;;5019785;28;20033;-64
2022/03/07 09:20:47;;;;;;;17.75;10.27;;;;;;;;;;5019807;28;20081;-64
2022/03/07 09:23:13;;;;;;;19.30;11.13;;;;;;;;;;5020097;28;20033;-64
2022/03/07 09:25:38;;;;;;;20.05;10.70;;;;;;;;;;5020133;28;20095;-69
2022/03/07 09:28:05;;;;;;;18.85;10.75;;;;;;;;;;5019573;28;20052;-65
2022/03/07 09:30:32;;;;;;;17.98;10.57;;;;;;;;;;5019620;28;20034;-66
2022/03/07 09:32:58;;;;;;;19.75;10.50;;;;;;;;;;5022298;28;20022;-63
2022/03/07 09:35:24;;;;;;;18.58;10.55;;;;;;;;;;5024295;28;20069;-63
2022/03/07 09:37:50;;;;;;;19.30;10.90;;;;;;;;;;5023425;28;20032;-69
2022/03/07 09:40:15;;;;;;;22.73;11.60;;;;;;;;;;5022028;28;20033;-63
2022/03/07 09:42:41;;;;;;;17.52;10.55;;;;;;;;;;5021489;28;20088;-63
2022/03/07 09:45:09;;;;;;;21.33;10.65;;;;;;;;;;5021649;28;20022;-64
2022/03/07 09:47:38;;;;;;;21.10;11.13;;;;;;;;;;5021513;28;20045;-63
2022/03/07 09:50:04;;;;;;;21.33;10.88;;;;;;;;;;5020922;28;20333;-65
2022/03/07 09:52:30;;;;;;;20.50;11.13;;;;;;;;;;5022787;28;20322;-64
2022/03/07 09:54:55;;;;;;;20.25;11.38;;;;;;;;;;5022836;28;20081;-65
2022/03/07 09:57:21;;;;;;;21.98;11.40;;;;;;;;;;5022852;28;20097;-65
2022/03/07 09:59:46;;;;;;;17.55;11.05;;;;;;;;;;5023398;28;20203;-70
2022/03/07 10:02:14;;;;;;;19.27;10.93;;;;;;;;;;5022771;28;20038;-65
2022/03/07 10:04:42;;;;;;;19.73;10.77;;;;;;;;;;5022613;28;20132;-72
2022/03/07 10:07:07;;;;;;;21.83;11.00;;;;;;;;;;5021590;28;20226;-64
2022/03/07 10:09:33;;;;;;;21.67;10.88;;;;;;;;;;5022611;28;20022;-64
2022/03/07 10:12:00;;;;;;;18.27;10.70;;;;;;;;;;5022707;28;20060;-64
2022/03/07 10:14:44;;;;;;;19.13;10.82;;;;;;;;;;5022972;28;20041;-64
2022/03/07 10:17:24;;;;;;;17.98;10.07;;;;;;;;;;5022912;28;20092;-64
2022/03/07 10:19:53;;;;;;;19.02;10.98;;;;;;;;;;5020522;28;20573;-64
2022/03/07 10:22:22;;;;;;;19.98;10.88;;;;;;;;;;5020724;28;20026;-63
2022/03/07 10:25:00;;;;;;;18.73;9.82;;;;;;;;;;5022102;28;20329;-64
2022/03/07 10:27:33;;;;;;;20.98;10.38;;;;;;;;;;5007696;28;20053;-63
2022/03/07 10:30:00;;;;;;;18.20;10.60;;;;;;;;;;5021491;28;20056;-65
2022/03/07 10:32:26;;;;;;;20.92;10.98;;;;;;;;;;5021416;28;20022;-69
2022/03/07 10:34:51;;;;;;;20.08;10.80;;;;;;;;;;5020783;28;20048;-65
2022/03/07 10:37:17;;;;;;;19.75;10.40;;;;;;;;;;5019956;28;20099;-65
2022/03/07 10:39:53;;;;;;;20.75;11.20;;;;;;;;;;5020387;28;20025;-67
2022/03/07 10:42:20;;;;;;;17.33;10.18;;;;;;;;;;5020315;28;20097;-64
2022/03/07 10:44:46;;;;;;;18.35;10.52;;;;;;;;;;5019054;28;20340;-63
2022/03/07 10:47:17;;;;;;;22.27;10.85;;;;;;;;;;5021403;28;20033;-65
2022/03/07 10:49:54;;;;;;;17.98;11.27;;;;;;;;;;5022279;28;20026;-63
2022/03/07 10:52:21;;;;;;;19.13;10.82;;;;;;;;;;5022233;28;20034;-64
2022/03/07 10:54:49;;;;;;;18.70;10.35;;;;;;;;;;5022191;28;20037;-66
2022/03/07 10:57:16;;;;;;;18.35;10.48;;;;;;;;;;5022632;28;20022;-65
2022/03/07 10:59:41;;;;;;;17.25;10.48;;;;;;;;;;5022018;28;20068;-63
2022/03/07 11:02:10;;;;;;;19.50;10.40;;;;;;;;;;5023473;28;20034;-63
2022/03/07 11:04:39;;;;;;;19.60;10.48;;;;;;;;;;5021761;28;20356;-68
2022/03/07 11:07:06;;;;;;;19.13;10.57;;;;;;;;;;5016913;28;20034;-68
2022/03/07 11:09:32;;;;;;;18.83;10.70;;;;;;;;;;5021262;28;20072;-65
2022/03/07 11:11:59;;;;;;;15.80;10.30;;;;;;;;;;5021253;28;20096;-64
2022/03/07 11:14:26;;;;;;;18.83;10.93;;;;;;;;;;5021199;28;20030;-64
2022/03/07 11:16:56;;;;;;;19.00;10.10;;;;;;;;;;5021021;28;20207;-66
2022/03/07 11:19:23;;;;;;;17.85;10.77;;;;;;;;;;5021061;28;20075;-63
2022/03/07 11:21:51;;;;;;;17.33;10.63;;;;;;;;;;5019351;28;20338;-69
2022/03/07 11:24:25;;;;;;;18.75;10.73;;;;;;;;;;5019243;28;20022;-64
2022/03/07 11:26:53;;;;;;;18.50;10.55;;;;;;;;;;5020433;28;20026;-65
2022/03/07 11:29:19;;;;;;;17.92;10.52;;;;;;;;;;5020666;28;20032;-69
2022/03/07 11:31:46;;;;;;;16.38;10.18;;;;;;;;;;5020239;28;20089;-64
2022/03/07 11:34:12;;;;;;;16.80;10.00;;;;;;;;;;5020384;28;20041;-64
2022/03/07 11:36:49;;;;;;;16.67;9.45;;;;;;;;;;5020852;28;20030;-64
2022/03/07 11:39:36;;;;;;;15.85;9.93;;;;;;;;;;5021991;28;20218;-65
2022/03/07 11:42:16;;;;;;;17.85;10.30;;;;;;;;;;5021397;28;20034;-65
2022/03/07 11:44:43;;;;;;;17.50;9.88;;;;;;;;;;5021400;28;20021;-64
2022/03/07 11:47:14;;;;;;;18.02;9.95;;;;;;;;;;5021903;28;20057;-72
2022/03/07 11:49:40;;;;;;;18.38;10.15;;;;;;;;;;5022259;28;20173;-64
2022/03/07 11:52:13;;;;;;;18.52;9.52;;;;;;;;;;5022353;28;20045;-65
2022/03/07 11:54:57;;;;;;;19.33;9.65;;;;;;;;;;5021824;28;20022;-64
2022/03/07 11:57:38;;;;;;;17.38;9.70;;;;;;;;;;5020560;28;20029;-65
2022/03/07 12:00:13;;;;;;;16.90;10.07;;;;;;;;;;5021139;28;20033;-64
2022/03/07 12:02:48;;;;;;;19.00;9.88;;;;;;;;;;5026079;28;20417;-65
2022/03/07 12:05:25;;;;;;;21.20;9.90;;;;;;;;;;5021123;28;20360;-65
2022/03/07 12:07:52;;;;;;;17.15;8.88;;;;;;;;;;5018577;28;20033;-70
2022/03/07 12:10:17;;;;;;;17.38;10.18;;;;;;;;;;5020075;28;20061;-71
2022/03/07 12:12:43;;;;;;;21.90;11.98;;;;;;;;;;5020162;28;20494;-73
2022/03/07 12:15:13;;;;;;;19.13;9.63;;;;;;;;;;5018504;28;20026;-71
2022/03/07 12:17:39;;;;;;;17.80;9.52;;;;;;;;;;5019966;28;20029;-74
2022/03/07 12:20:06;;;;;;;16.52;10.20;;;;;;;;;;5018823;28;20068;-71
2022/03/07 12:22:35;;;;;;;15.63;9.20;;;;;;;;;;5018235;28;20025;-70
2022/03/07 12:25:06;;;;;;;17.48;9.73;;;;;;;;;;5019645;28;20218;-75
2022/03/07 12:27:37;;;;;;;15.63;9.32;;;;;;;;;;5034197;28;20017;-75
2022/03/07 12:30:05;;;;;;;17.75;9.50;;;;;;;;;;5037952;28;20021;-75
2022/03/07 12:32:30;;;;;;;20.65;10.38;;;;;;;;;;5038012;28;20244;-75
2022/03/07 12:34:56;;;;;;;17.65;9.63;;;;;;;;;;5028166;28;20338;-77
2022/03/07 12:37:22;;;;;;;19.90;10.57;;;;;;;;;;5019041;28;20309;-75
2022/03/07 12:39:59;;;;;;;19.30;10.07;;;;;;;;;;5020227;28;20089;-71
2022/03/07 12:42:31;;;;;;;16.35;9.68;;;;;;;;;;5019454;28;20081;-75
2022/03/07 12:45:00;;;;;;;15.32;9.40;;;;;;;;;;5018690;28;20026;-69
2022/03/07 12:47:30;;;;;;;18.38;10.07;;;;;;;;;;5019914;28;20022;-68
2022/03/07 12:49:57;;;;;;;16.88;9.63;;;;;;;;;;5019520;28;20022;-66
2022/03/07 12:52:26;;;;;;;15.77;9.05;;;;;;;;;;5018216;28;20033;-74
2022/03/07 12:54:52;;;;;;;16.40;9.52;;;;;;;;;;5019645;28;20029;-72
2022/03/07 12:57:19;;;;;;;17.35;9.60;;;;;;;;;;5017941;28;20029;-73
2022/03/07 12:59:49;;;;;;;15.95;8.93;;;;;;;;;;5019070;28;20018;-72
2022/03/07 13:02:15;;;;;;;16.23;8.80;;;;;;;;;;5019074;28;20102;-72
2022/03/07 13:04:40;;;;;;;18.23;9.77;;;;;;;;;;5019480;28;20226;-71
2022/03/07 13:07:11;;;;;;;15.00;9.25;;;;;;;;;;5018936;28;20025;-71
2022/03/07 13:09:37;;;;;;;16.23;8.98;;;;;;;;;;5023359;28;20309;-73
2022/03/07 13:12:06;;;;;;;17.73;9.45;;;;;;;;;;5019253;28;20101;-73
2022/03/07 13:14:34;;;;;;;16.20;8.88;;;;;;;;;;5023032;28;20124;-73
2022/03/07 13:17:18;;;;;;;16.20;9.10;;;;;;;;;;5022927;28;20026;-67
2022/03/07 13:19:46;;;;;;;17.70;9.50;;;;;;;;;;5022771;28;20072;-73
2022/03/07 13:22:13;;;;;;;14.45;9.07;;;;;;;;;;5022140;28;20014;-67
2022/03/07 13:24:38;;;;;;;15.52;9.35;;;;;;;;;;5022000;28;20030;-65
2022/03/07 13:27:07;;;;;;;15.75;9.15;;;;;;;;;;5022906;28;20195;-71
2022/03/07 13:29:34;;;;;;;17.55;9.90;;;;;;;;;;5022740;28;20310;-71
2022/03/07 13:32:05;;;;;;;16.52;9.45;;;;;;;;;;5021416;28;20038;-65
2022/03/07 13:34:50;;;;;;;16.17;9.38;;;;;;;;;;5022467;28;20188;-65
2022/03/07 13:37:24;;;;;;;15.77;9.20;;;;;;;;;;5023164;28;20064;-68
2022/03/07 13:40:06;;;;;;;18.45;9.93;;;;;;;;;;5022980;28;20025;-66
2022/03/07 13:42:39;;;;;;;16.00;9.32;;;;;;;;;;5028930;28;20029;-75
2022/03/07 13:45:14;;;;;;;17.25;9.25;;;;;;;;;;5022425;28;20022;-76
2022/03/07 13:47:41;;;;;;;17.10;10.02;;;;;;;;;;5022685;28;20093;-75
2022/03/07 13:50:10;;;;;;;15.85;8.82;;;;;;;;;;5023135;28;20204;-76
2022/03/07 13:52:38;;;;;;;18.13;9.55;;;;;;;;;;5023347;28;20682;-75
2022/03/07 13:55:09;;;;;;;17.50;9.80;;;;;;;;;;5024039;28;20289;-76
2022/03/07 13:57:39;;;;;;;14.20;8.32;;;;;;;;;;5023627;28;20093;-73
2022/03/07 14:00:20;;;;;;;15.32;8.27;;;;;;;;;;5023144;28;20102;-73
2022/03/07 14:02:50;;;;;;;16.02;9.00;;;;;;;;;;5026524;28;20022;-68
2022/03/07 14:05:18;;;;;;;17.65;9.68;;;;;;;;;;5022793;28;20022;-75
2022/03/07 14:07:47;;;;;;;16.95;9.27;;;;;;;;;;5023299;28;20332;-75
2022/03/07 14:10:14;;;;;;;15.65;8.48;;;;;;;;;;5023178;28;20038;-75
2022/03/07 14:12:42;;;;;;;15.60;8.90;;;;;;;;;;5038486;28;20085;-73
2022/03/07 14:15:11;;;;;;;16.33;8.15;;;;;;;;;;5022617;28;20029;-82
2022/03/07 14:17:40;;;;;;;15.10;8.60;;;;;;;;;;5022632;28;20054;-76